This is the latest recevied weather packets stored in our database for station/object DG4DAZ-6. If no packets are shown the sender has not sent any weather packets the latest 10 day(s).
| Time | Temp. | Humidity | Pressure | Rain* | Wind** | Luminosity | Snow |
|---|---|---|---|---|---|---|---|
| 1777360167 | 10.56° C | 64% | 1019.7 hPa | 0 mm | - | 324 W/m² | - |
| 1777359566 | 9.44° C | 66% | 1019.8 hPa | 0 mm | - | 250 W/m² | - |
| 1777358966 | 9.44° C | 69% | 1019.8 hPa | 0 mm | - | 234 W/m² | - |
| 1777358365 | 8.33° C | 71% | 1019.8 hPa | 0 mm | - | 224 W/m² | - |
| 1777357767 | 7.22° C | 73% | 1019.9 hPa | 0 mm | - | 185 W/m² | - |
| 1777357166 | 7.22° C | 74% | 1019.8 hPa | 0 mm | - | 132 W/m² | - |
| 1777356566 | 6.67° C | 75% | 1019.7 hPa | 0 mm | - | 115 W/m² | - |
| 1777355966 | 6.67° C | 76% | 1019.6 hPa | 0 mm | - | 94 W/m² | - |
| 1777355367 | 6.11° C | 77% | 1019.6 hPa | 0 mm | - | 68 W/m² | - |
| 1777354766 | 5.56° C | 78% | 1019.6 hPa | 0 mm | - | 47 W/m² | - |
| 1777354165 | 5° C | 80% | 1019.7 hPa | 0 mm | - | 56 W/m² | - |
| 1777353567 | 5° C | 80% | 1019.8 hPa | 0 mm | - | 38 W/m² | - |
| 1777352966 | 5° C | 80% | 1019.8 hPa | 0 mm | - | 30 W/m² | - |
| 1777352365 | 5° C | 79% | 1019.8 hPa | 0 mm | - | 25 W/m² | - |
| 1777351766 | 5° C | 79% | 1019.8 hPa | 0 mm | - | 18 W/m² | - |
| 1777351166 | 5° C | 78% | 1019.7 hPa | 0 mm | - | 12 W/m² | - |
| 1777350565 | 5° C | 78% | 1019.7 hPa | 0 mm | - | 7 W/m² | - |
| 1777349967 | 5° C | 78% | 1019.7 hPa | 0 mm | - | 0 W/m² | - |
| 1777349366 | 5° C | 77% | 1019.7 hPa | 0 mm | - | 0 W/m² | - |
| 1777348766 | 5.56° C | 77% | 1019.7 hPa | 0 mm | - | 0 W/m² | - |
| 1777348166 | 5.56° C | 76% | 1019.8 hPa | 0 mm | - | 0 W/m² | - |
| 1777347566 | 5.56° C | 76% | 1019.7 hPa | 0 mm | - | 0 W/m² | - |
| 1777346966 | 5.56° C | 75% | 1019.7 hPa | 0 mm | - | 0 W/m² | - |
| 1777346366 | 6.11° C | 75% | 1019.7 hPa | 0 mm | - | 0 W/m² | - |
| 1777345767 | 6.11° C | 75% | 1019.7 hPa | 0 mm | - | 0 W/m² | - |
* Rain latest hour (hover to see other rain measurements)
** Current wind speed in m/s (hover to see current wind gust speed)